sensor_id;sensor_type;location;lat;lon;timestamp;pressure;altitude;pressure_sealevel;temperature;humidity
75650;BME280;64245;51.282;22.494;2024-03-17T00:01:07;98769.31;;;7.33;100.00
75650;BME280;64245;51.282;22.494;2024-03-17T00:03:53;98775.81;;;7.31;100.00
75650;BME280;64245;51.282;22.494;2024-03-17T00:06:19;98776.81;;;7.30;100.00
75650;BME280;64245;51.282;22.494;2024-03-17T00:08:44;98785.25;;;7.35;100.00
75650;BME280;64245;51.282;22.494;2024-03-17T00:11:10;98792.56;;;7.23;100.00
75650;BME280;64245;51.282;22.494;2024-03-17T00:13:37;98787.22;;;7.33;100.00
75650;BME280;64245;51.282;22.494;2024-03-17T00:16:03;98788.25;;;7.51;100.00
75650;BME280;64245;51.282;22.494;2024-03-17T00:18:30;98794.09;;;7.66;100.00
75650;BME280;64245;51.282;22.494;2024-03-17T00:20:56;98780.81;;;7.74;100.00
75650;BME280;64245;51.282;22.494;2024-03-17T00:23:21;98796.91;;;7.74;100.00
75650;BME280;64245;51.282;22.494;2024-03-17T00:25:48;98800.41;;;7.55;100.00
75650;BME280;64245;51.282;22.494;2024-03-17T00:28:13;98801.81;;;7.59;100.00
75650;BME280;64245;51.282;22.494;2024-03-17T00:30:39;98796.31;;;7.60;100.00
75650;BME280;64245;51.282;22.494;2024-03-17T00:33:07;98782.75;;;7.43;100.00
75650;BME280;64245;51.282;22.494;2024-03-17T00:35:34;98804.38;;;7.70;100.00
75650;BME280;64245;51.282;22.494;2024-03-17T00:37:59;98807.63;;;7.74;100.00
75650;BME280;64245;51.282;22.494;2024-03-17T00:40:26;98800.88;;;7.79;100.00
75650;BME280;64245;51.282;22.494;2024-03-17T00:42:51;98801.44;;;7.92;100.00
75650;BME280;64245;51.282;22.494;2024-03-17T00:45:19;98783.81;;;7.80;100.00
75650;BME280;64245;51.282;22.494;2024-03-17T00:47:45;98797.19;;;7.90;100.00
75650;BME280;64245;51.282;22.494;2024-03-17T00:50:11;98793.41;;;7.83;100.00
75650;BME280;64245;51.282;22.494;2024-03-17T00:52:38;98798.94;;;8.01;100.00
75650;BME280;64245;51.282;22.494;2024-03-17T00:55:05;98811.47;;;7.90;100.00
75650;BME280;64245;51.282;22.494;2024-03-17T00:57:30;98808.50;;;7.93;100.00
75650;BME280;64245;51.282;22.494;2024-03-17T00:59:56;98810.34;;;7.83;100.00
75650;BME280;64245;51.282;22.494;2024-03-17T01:02:22;98808.63;;;7.92;100.00
75650;BME280;64245;51.282;22.494;2024-03-17T01:04:48;98816.97;;;7.98;100.00
75650;BME280;64245;51.282;22.494;2024-03-17T01:07:13;98816.13;;;7.98;100.00
75650;BME280;64245;51.282;22.494;2024-03-17T01:09:39;98812.75;;;7.86;100.00
75650;BME280;64245;51.282;22.494;2024-03-17T01:12:05;98808.91;;;7.89;100.00
75650;BME280;64245;51.282;22.494;2024-03-17T01:14:31;98811.91;;;7.86;100.00
75650;BME280;64245;51.282;22.494;2024-03-17T01:16:59;98810.50;;;8.01;100.00
75650;BME280;64245;51.282;22.494;2024-03-17T01:19:25;98815.84;;;8.11;100.00
75650;BME280;64245;51.282;22.494;2024-03-17T01:21:52;98814.16;;;8.10;100.00
75650;BME280;64245;51.282;22.494;2024-03-17T01:24:21;98820.50;;;8.09;100.00
75650;BME280;64245;51.282;22.494;2024-03-17T01:26:47;98815.84;;;8.11;100.00
75650;BME280;64245;51.282;22.494;2024-03-17T01:29:13;98814.59;;;8.05;100.00
75650;BME280;64245;51.282;22.494;2024-03-17T01:31:39;98825.88;;;8.09;100.00
75650;BME280;64245;51.282;22.494;2024-03-17T01:34:05;98814.47;;;8.07;100.00
75650;BME280;64245;51.282;22.494;2024-03-17T01:36:30;98830.56;;;8.07;100.00
75650;BME280;64245;51.282;22.494;2024-03-17T01:38:56;98819.66;;;7.98;100.00
75650;BME280;64245;51.282;22.494;2024-03-17T01:41:22;98832.81;;;8.02;100.00
75650;BME280;64245;51.282;22.494;2024-03-17T01:43:48;98840.00;;;8.01;100.00
75650;BME280;64245;51.282;22.494;2024-03-17T01:46:15;98845.63;;;7.98;100.00
75650;BME280;64245;51.282;22.494;2024-03-17T01:48:42;98837.88;;;7.95;100.00
75650;BME280;64245;51.282;22.494;2024-03-17T01:51:10;98841.13;;;7.98;100.00
75650;BME280;64245;51.282;22.494;2024-03-17T01:53:39;98841.38;;;7.86;100.00
75650;BME280;64245;51.282;22.494;2024-03-17T01:56:05;98847.56;;;7.77;100.00
75650;BME280;64245;51.282;22.494;2024-03-17T01:58:34;98856.66;;;7.45;100.00
75650;BME280;64245;51.282;22.494;2024-03-17T02:01:00;98863.66;;;7.06;100.00
75650;BME280;64245;51.282;22.494;2024-03-17T02:03:27;98882.34;;;6.76;100.00
75650;BME280;64245;51.282;22.494;2024-03-17T02:05:52;98880.44;;;6.46;100.00
75650;BME280;64245;51.282;22.494;2024-03-17T02:08:18;98879.97;;;6.09;100.00
75650;BME280;64245;51.282;22.494;2024-03-17T02:10:46;98887.03;;;6.10;100.00
75650;BME280;64245;51.282;22.494;2024-03-17T02:13:12;98910.41;;;5.74;100.00
75650;BME280;64245;51.282;22.494;2024-03-17T02:15:37;98923.63;;;5.65;100.00
75650;BME280;64245;51.282;22.494;2024-03-17T02:18:03;98930.06;;;5.62;100.00
75650;BME280;64245;51.282;22.494;2024-03-17T02:20:30;98931.53;;;5.55;100.00
75650;BME280;64245;51.282;22.494;2024-03-17T02:23:15;98955.56;;;5.33;100.00
75650;BME280;64245;51.282;22.494;2024-03-17T02:25:40;98957.84;;;5.15;100.00
75650;BME280;64245;51.282;22.494;2024-03-17T02:28:06;98955.41;;;5.12;100.00
75650;BME280;64245;51.282;22.494;2024-03-17T02:30:32;98957.41;;;4.86;100.00
75650;BME280;64245;51.282;22.494;2024-03-17T02:32:58;98961.47;;;4.68;100.00
75650;BME280;64245;51.282;22.494;2024-03-17T02:35:24;98955.78;;;4.72;100.00
75650;BME280;64245;51.282;22.494;2024-03-17T02:37:50;98953.00;;;4.74;100.00
75650;BME280;64245;51.282;22.494;2024-03-17T02:40:17;98943.31;;;4.49;100.00
75650;BME280;64245;51.282;22.494;2024-03-17T02:42:43;98949.28;;;4.29;100.00
75650;BME280;64245;51.282;22.494;2024-03-17T02:45:13;98972.66;;;4.25;100.00
75650;BME280;64245;51.282;22.494;2024-03-17T02:47:40;98992.78;;;4.29;100.00
75650;BME280;64245;51.282;22.494;2024-03-17T02:50:07;98973.69;;;4.35;100.00
75650;BME280;64245;51.282;22.494;2024-03-17T02:52:33;98977.00;;;4.39;100.00
75650;BME280;64245;51.282;22.494;2024-03-17T02:54:59;98979.66;;;4.39;100.00
75650;BME280;64245;51.282;22.494;2024-03-17T02:57:26;98985.94;;;4.38;100.00
75650;BME280;64245;51.282;22.494;2024-03-17T02:59:55;98973.34;;;4.40;100.00
75650;BME280;64245;51.282;22.494;2024-03-17T03:02:22;98985.53;;;4.55;100.00
75650;BME280;64245;51.282;22.494;2024-03-17T03:04:48;98991.72;;;4.56;100.00
75650;BME280;64245;51.282;22.494;2024-03-17T03:07:14;98993.09;;;4.37;100.00
75650;BME280;64245;51.282;22.494;2024-03-17T03:09:40;98984.13;;;4.38;100.00
75650;BME280;64245;51.282;22.494;2024-03-17T03:12:06;98993.63;;;4.42;100.00
75650;BME280;64245;51.282;22.494;2024-03-17T03:14:33;98984.41;;;4.46;100.00
75650;BME280;64245;51.282;22.494;2024-03-17T03:16:59;98986.94;;;4.48;100.00
75650;BME280;64245;51.282;22.494;2024-03-17T03:19:28;98981.41;;;4.51;100.00
75650;BME280;64245;51.282;22.494;2024-03-17T03:21:56;98996.88;;;4.46;100.00
75650;BME280;64245;51.282;22.494;2024-03-17T03:24:25;99013.63;;;4.48;100.00
75650;BME280;64245;51.282;22.494;2024-03-17T03:26:51;99015.75;;;4.43;100.00
75650;BME280;64245;51.282;22.494;2024-03-17T03:29:16;99026.56;;;4.41;100.00
75650;BME280;64245;51.282;22.494;2024-03-17T03:31:44;99024.63;;;4.20;100.00
75650;BME280;64245;51.282;22.494;2024-03-17T03:34:10;99024.84;;;4.16;100.00
75650;BME280;64245;51.282;22.494;2024-03-17T03:36:38;99029.63;;;4.11;100.00
75650;BME280;64245;51.282;22.494;2024-03-17T03:39:04;99024.09;;;4.14;100.00
75650;BME280;64245;51.282;22.494;2024-03-17T03:41:31;99023.22;;;4.14;100.00
75650;BME280;64245;51.282;22.494;2024-03-17T03:43:58;99024.72;;;4.18;100.00
75650;BME280;64245;51.282;22.494;2024-03-17T03:46:24;99014.97;;;3.93;100.00
75650;BME280;64245;51.282;22.494;2024-03-17T03:48:51;99038.25;;;4.15;100.00
75650;BME280;64245;51.282;22.494;2024-03-17T03:51:17;99051.47;;;4.16;100.00
75650;BME280;64245;51.282;22.494;2024-03-17T03:53:43;99044.56;;;4.14;100.00
75650;BME280;64245;51.282;22.494;2024-03-17T03:56:09;99038.69;;;4.09;100.00
75650;BME280;64245;51.282;22.494;2024-03-17T03:58:39;99051.84;;;3.99;100.00
75650;BME280;64245;51.282;22.494;2024-03-17T04:01:09;99046.06;;;4.05;100.00
75650;BME280;64245;51.282;22.494;2024-03-17T04:03:37;99049.06;;;4.01;100.00
75650;BME280;64245;51.282;22.494;2024-03-17T04:06:08;99038.09;;;3.93;100.00
75650;BME280;64245;51.282;22.494;2024-03-17T04:08:35;99058.22;;;3.97;100.00
75650;BME280;64245;51.282;22.494;2024-03-17T04:11:02;99063.56;;;3.97;100.00
75650;BME280;64245;51.282;22.494;2024-03-17T04:13:29;99052.69;;;3.87;100.00
75650;BME280;64245;51.282;22.494;2024-03-17T04:16:00;99058.22;;;3.97;100.00
75650;BME280;64245;51.282;22.494;2024-03-17T04:18:26;99054.19;;;3.91;100.00
75650;BME280;64245;51.282;22.494;2024-03-17T04:20:57;99042.56;;;3.92;100.00
75650;BME280;64245;51.282;22.494;2024-03-17T04:23:23;99049.91;;;3.89;100.00
75650;BME280;64245;51.282;22.494;2024-03-17T04:25:53;99049.28;;;3.98;100.00
75650;BME280;64245;51.282;22.494;2024-03-17T04:28:19;99053.97;;;3.94;100.00
75650;BME280;64245;51.282;22.494;2024-03-17T04:30:45;99060.78;;;3.98;100.00
75650;BME280;64245;51.282;22.494;2024-03-17T04:33:14;99061.63;;;3.86;100.00
75650;BME280;64245;51.282;22.494;2024-03-17T04:35:42;99063.56;;;3.97;100.00
75650;BME280;64245;51.282;22.494;2024-03-17T04:38:08;99064.09;;;3.89;100.00
75650;BME280;64245;51.282;22.494;2024-03-17T04:40:41;99060.91;;;3.84;100.00
75650;BME280;64245;51.282;22.494;2024-03-17T04:43:08;99071.03;;;3.79;100.00
75650;BME280;64245;51.282;22.494;2024-03-17T04:45:34;99071.34;;;3.74;100.00
75650;BME280;64245;51.282;22.494;2024-03-17T04:48:00;99077.19;;;3.67;100.00
75650;BME280;64245;51.282;22.494;2024-03-17T04:50:25;99084.56;;;3.63;100.00
75650;BME280;64245;51.282;22.494;2024-03-17T04:52:52;99083.06;;;3.59;100.00
75650;BME280;64245;51.282;22.494;2024-03-17T04:55:18;99071.88;;;3.54;100.00
75650;BME280;64245;51.282;22.494;2024-03-17T04:57:45;99071.22;;;3.51;100.00
75650;BME280;64245;51.282;22.494;2024-03-17T05:00:11;99067.31;;;3.56;100.00
75650;BME280;64245;51.282;22.494;2024-03-17T05:02:40;99072.28;;;3.48;100.00
75650;BME280;64245;51.282;22.494;2024-03-17T05:05:06;99072.94;;;3.39;100.00
75650;BME280;64245;51.282;22.494;2024-03-17T05:07:34;99089.03;;;3.50;100.00
75650;BME280;64245;51.282;22.494;2024-03-17T05:10:01;99093.19;;;3.54;100.00
75650;BME280;64245;51.282;22.494;2024-03-17T05:12:27;99088.91;;;3.52;100.00
75650;BME280;64245;51.282;22.494;2024-03-17T05:14:53;99100.09;;;3.57;100.00
75650;BME280;64245;51.282;22.494;2024-03-17T05:17:18;99107.78;;;3.61;100.00
75650;BME280;64245;51.282;22.494;2024-03-17T05:19:44;99118.53;;;3.72;100.00
75650;BME280;64245;51.282;22.494;2024-03-17T05:22:10;99100.66;;;3.74;100.00
75650;BME280;64245;51.282;22.494;2024-03-17T05:24:36;99117.91;;;3.81;100.00
75650;BME280;64245;51.282;22.494;2024-03-17T05:27:02;99127.59;;;3.70;100.00
75650;BME280;64245;51.282;22.494;2024-03-17T05:29:29;99115.88;;;3.72;100.00
75650;BME280;64245;51.282;22.494;2024-03-17T05:31:55;99120.66;;;3.67;100.00
75650;BME280;64245;51.282;22.494;2024-03-17T05:34:22;99122.25;;;3.70;100.00
75650;BME280;64245;51.282;22.494;2024-03-17T05:36:50;99127.50;;;3.71;100.00
75650;BME280;64245;51.282;22.494;2024-03-17T05:39:18;99131.56;;;3.64;100.00
75650;BME280;64245;51.282;22.494;2024-03-17T05:41:45;99122.81;;;3.75;100.00
75650;BME280;64245;51.282;22.494;2024-03-17T05:44:20;99140.19;;;3.80;100.00
75650;BME280;64245;51.282;22.494;2024-03-17T05:46:46;99135.38;;;3.86;100.00
75650;BME280;64245;51.282;22.494;2024-03-17T05:49:12;99133.34;;;3.89;100.00
75650;BME280;64245;51.282;22.494;2024-03-17T05:51:38;99138.03;;;3.86;100.00
75650;BME280;64245;51.282;22.494;2024-03-17T05:54:04;99143.25;;;3.87;100.00
75650;BME280;64245;51.282;22.494;2024-03-17T05:56:30;99141.25;;;3.91;100.00
75650;BME280;64245;51.282;22.494;2024-03-17T05:58:56;99149.88;;;3.94;100.00
75650;BME280;64245;51.282;22.494;2024-03-17T06:01:21;99151.69;;;3.94;100.00
75650;BME280;64245;51.282;22.494;2024-03-17T06:03:48;99160.09;;;3.88;100.00
75650;BME280;64245;51.282;22.494;2024-03-17T06:06:14;99150.09;;;3.91;100.00
75650;BME280;64245;51.282;22.494;2024-03-17T06:08:40;99163.44;;;4.04;100.00
75650;BME280;64245;51.282;22.494;2024-03-17T06:11:06;99156.41;;;4.03;100.00
75650;BME280;64245;51.282;22.494;2024-03-17T06:13:32;99175.22;;;4.25;100.00
75650;BME280;64245;51.282;22.494;2024-03-17T06:15:58;99173.22;;;4.41;100.00
75650;BME280;64245;51.282;22.494;2024-03-17T06:18:27;99170.53;;;4.41;100.00
75650;BME280;64245;51.282;22.494;2024-03-17T06:20:53;99174.16;;;4.28;100.00
75650;BME280;64245;51.282;22.494;2024-03-17T06:23:19;99172.00;;;4.45;100.00
75650;BME280;64245;51.282;22.494;2024-03-17T06:25:46;99171.69;;;4.50;100.00
75650;BME280;64245;51.282;22.494;2024-03-17T06:28:15;99183.75;;;4.43;100.00
75650;BME280;64245;51.282;22.494;2024-03-17T06:30:45;99183.22;;;4.38;100.00
75650;BME280;64245;51.282;22.494;2024-03-17T06:33:16;99181.41;;;4.38;100.00
75650;BME280;64245;51.282;22.494;2024-03-17T06:35:45;99183.31;;;4.24;100.00
75650;BME280;64245;51.282;22.494;2024-03-17T06:38:13;99185.88;;;4.25;100.00
75650;BME280;64245;51.282;22.494;2024-03-17T06:40:39;99181.09;;;4.30;100.00
75650;BME280;64245;51.282;22.494;2024-03-17T06:43:05;99188.25;;;4.42;100.00
75650;BME280;64245;51.282;22.494;2024-03-17T06:45:32;99189.88;;;4.69;100.00
75650;BME280;64245;51.282;22.494;2024-03-17T06:47:58;99192.31;;;4.84;100.00
75650;BME280;64245;51.282;22.494;2024-03-17T06:50:24;99192.19;;;4.86;100.00
75650;BME280;64245;51.282;22.494;2024-03-17T06:52:50;99194.22;;;4.95;100.00
75650;BME280;64245;51.282;22.494;2024-03-17T06:55:20;99188.81;;;5.08;100.00
75650;BME280;64245;51.282;22.494;2024-03-17T06:57:50;99187.81;;;4.98;100.00
75650;BME280;64245;51.282;22.494;2024-03-17T07:00:16;99193.25;;;4.96;100.00
75650;BME280;64245;51.282;22.494;2024-03-17T07:02:49;99194.38;;;5.05;100.00
75650;BME280;64245;51.282;22.494;2024-03-17T07:05:15;99201.16;;;4.98;100.00
75650;BME280;64245;51.282;22.494;2024-03-17T07:07:42;99200.09;;;4.88;100.00
75650;BME280;64245;51.282;22.494;2024-03-17T07:10:08;99198.00;;;5.04;100.00
75650;BME280;64245;51.282;22.494;2024-03-17T07:12:34;99196.94;;;5.06;100.00
75650;BME280;64245;51.282;22.494;2024-03-17T07:15:00;99196.88;;;4.95;100.00
75650;BME280;64245;51.282;22.494;2024-03-17T07:17:26;99198.59;;;4.96;100.00
75650;BME280;64245;51.282;22.494;2024-03-17T07:19:55;99200.28;;;4.97;100.00
75650;BME280;64245;51.282;22.494;2024-03-17T07:22:21;99199.59;;;5.06;100.00
75650;BME280;64245;51.282;22.494;2024-03-17T07:24:52;99211.25;;;5.05;100.00
75650;BME280;64245;51.282;22.494;2024-03-17T07:27:25;99206.88;;;5.04;100.00
75650;BME280;64245;51.282;22.494;2024-03-17T07:29:51;99206.28;;;4.88;100.00
75650;BME280;64245;51.282;22.494;2024-03-17T07:32:17;99208.47;;;5.07;100.00
75650;BME280;64245;51.282;22.494;2024-03-17T07:34:42;99204.88;;;4.95;100.00
75650;BME280;64245;51.282;22.494;2024-03-17T07:37:09;99211.34;;;5.04;100.00
75650;BME280;64245;51.282;22.494;2024-03-17T07:39:35;99210.81;;;5.11;100.00
75650;BME280;64245;51.282;22.494;2024-03-17T07:42:02;99202.06;;;5.09;100.00
75650;BME280;64245;51.282;22.494;2024-03-17T07:44:28;99211.44;;;5.15;100.00
75650;BME280;64245;51.282;22.494;2024-03-17T07:47:02;99212.66;;;5.22;100.00
75650;BME280;64245;51.282;22.494;2024-03-17T07:49:30;99208.25;;;5.10;100.00
75650;BME280;64245;51.282;22.494;2024-03-17T07:51:56;99218.59;;;5.14;100.00
75650;BME280;64245;51.282;22.494;2024-03-17T07:54:24;99209.31;;;5.07;100.00
75650;BME280;64245;51.282;22.494;2024-03-17T07:56:50;99209.84;;;5.12;100.00
75650;BME280;64245;51.282;22.494;2024-03-17T07:59:19;99215.88;;;4.91;100.00
75650;BME280;64245;51.282;22.494;2024-03-17T08:01:46;99211.84;;;4.85;100.00
75650;BME280;64245;51.282;22.494;2024-03-17T08:04:12;99213.75;;;4.96;100.00
75650;BME280;64245;51.282;22.494;2024-03-17T08:06:39;99220.41;;;4.65;100.00
75650;BME280;64245;51.282;22.494;2024-03-17T08:09:06;99220.97;;;4.57;100.00
75650;BME280;64245;51.282;22.494;2024-03-17T08:11:37;99209.19;;;4.72;100.00
75650;BME280;64245;51.282;22.494;2024-03-17T08:14:04;99227.19;;;4.94;100.00
75650;BME280;64245;51.282;22.494;2024-03-17T08:16:31;99224.44;;;4.83;100.00
75650;BME280;64245;51.282;22.494;2024-03-17T08:18:57;99225.06;;;4.86;100.00
75650;BME280;64245;51.282;22.494;2024-03-17T08:21:23;99220.38;;;4.90;93.67
75650;BME280;64245;51.282;22.494;2024-03-17T08:23:50;99227.88;;;5.09;90.75
75650;BME280;64245;51.282;22.494;2024-03-17T08:26:16;99219.28;;;5.29;94.61
75650;BME280;64245;51.282;22.494;2024-03-17T08:28:42;99210.13;;;5.44;91.23
75650;BME280;64245;51.282;22.494;2024-03-17T08:31:08;99209.38;;;5.42;91.17
75650;BME280;64245;51.282;22.494;2024-03-17T08:33:33;99205.00;;;5.41;92.12
75650;BME280;64245;51.282;22.494;2024-03-17T08:36:04;99206.78;;;5.30;91.74
75650;BME280;64245;51.282;22.494;2024-03-17T08:38:32;99202.94;;;5.21;92.69
75650;BME280;64245;51.282;22.494;2024-03-17T08:41:02;99211.03;;;5.08;94.34
75650;BME280;64245;51.282;22.494;2024-03-17T08:43:29;99201.53;;;5.04;97.63
75650;BME280;64245;51.282;22.494;2024-03-17T08:48:30;99199.94;;;5.02;98.51
75650;BME280;64245;51.282;22.494;2024-03-17T08:50:57;99208.13;;;5.11;99.33
75650;BME280;64245;51.282;22.494;2024-03-17T08:53:23;99202.28;;;5.30;98.23
75650;BME280;64245;51.282;22.494;2024-03-17T08:55:50;99190.91;;;5.39;100.00
75650;BME280;64245;51.282;22.494;2024-03-17T08:58:16;99196.44;;;5.49;97.83
75650;BME280;64245;51.282;22.494;2024-03-17T09:00:42;99196.13;;;5.41;98.67
75650;BME280;64245;51.282;22.494;2024-03-17T09:03:09;99201.84;;;5.36;97.46
75650;BME280;64245;51.282;22.494;2024-03-17T09:05:37;99200.13;;;5.11;97.67
75650;BME280;64245;51.282;22.494;2024-03-17T09:08:03;99207.44;;;4.97;99.84
75650;BME280;64245;51.282;22.494;2024-03-17T09:10:30;99201.78;;;4.89;100.00
75650;BME280;64245;51.282;22.494;2024-03-17T09:12:56;99212.56;;;4.87;100.00
75650;BME280;64245;51.282;22.494;2024-03-17T09:15:22;99215.94;;;5.02;100.00
75650;BME280;64245;51.282;22.494;2024-03-17T09:17:48;99215.47;;;4.84;100.00
75650;BME280;64245;51.282;22.494;2024-03-17T09:20:14;99210.81;;;4.75;100.00
75650;BME280;64245;51.282;22.494;2024-03-17T09:22:41;99206.22;;;4.77;100.00
75650;BME280;64245;51.282;22.494;2024-03-17T09:25:10;99213.97;;;4.93;100.00
75650;BME280;64245;51.282;22.494;2024-03-17T09:27:37;99203.69;;;4.99;99.29
75650;BME280;64245;51.282;22.494;2024-03-17T09:30:04;99209.44;;;5.30;100.00
75650;BME280;64245;51.282;22.494;2024-03-17T09:32:35;99210.47;;;5.16;91.69
75650;BME280;64245;51.282;22.494;2024-03-17T09:35:01;99202.09;;;5.20;87.74
75650;BME280;64245;51.282;22.494;2024-03-17T09:37:28;99192.91;;;5.25;87.48
75650;BME280;64245;51.282;22.494;2024-03-17T09:39:59;99195.44;;;5.74;88.50
75650;BME280;64245;51.282;22.494;2024-03-17T09:42:26;99201.19;;;6.15;83.12
75650;BME280;64245;51.282;22.494;2024-03-17T09:44:56;99198.88;;;6.33;86.32
75650;BME280;64245;51.282;22.494;2024-03-17T09:47:22;99200.16;;;6.05;81.54
75650;BME280;64245;51.282;22.494;2024-03-17T09:49:50;99205.06;;;5.87;82.82
75650;BME280;64245;51.282;22.494;2024-03-17T09:52:23;99199.72;;;5.76;81.08
75650;BME280;64245;51.282;22.494;2024-03-17T09:55:01;99208.25;;;5.58;84.29
75650;BME280;64245;51.282;22.494;2024-03-17T09:57:36;99207.16;;;5.60;83.41
75650;BME280;64245;51.282;22.494;2024-03-17T10:00:13;99209.69;;;5.50;84.21
75650;BME280;64245;51.282;22.494;2024-03-17T10:02:46;99209.03;;;5.47;83.63
75650;BME280;64245;51.282;22.494;2024-03-17T10:05:20;99201.22;;;5.57;83.05
75650;BME280;64245;51.282;22.494;2024-03-17T10:07:48;99201.88;;;5.71;83.24
75650;BME280;64245;51.282;22.494;2024-03-17T10:10:37;99206.59;;;6.03;82.38
75650;BME280;64245;51.282;22.494;2024-03-17T10:13:03;99194.69;;;6.07;85.25
75650;BME280;64245;51.282;22.494;2024-03-17T10:15:29;99196.84;;;5.91;82.46
75650;BME280;64245;51.282;22.494;2024-03-17T10:17:55;99203.06;;;6.02;82.20
75650;BME280;64245;51.282;22.494;2024-03-17T10:20:21;99205.72;;;5.91;82.24
75650;BME280;64245;51.282;22.494;2024-03-17T10:22:59;99198.06;;;5.63;82.00
75650;BME280;64245;51.282;22.494;2024-03-17T10:25:32;99208.03;;;5.37;84.11
75650;BME280;64245;51.282;22.494;2024-03-17T10:28:00;99205.06;;;5.29;85.33
75650;BME280;64245;51.282;22.494;2024-03-17T10:30:27;99208.44;;;5.19;85.69
75650;BME280;64245;51.282;22.494;2024-03-17T10:32:57;99201.31;;;5.07;83.01
75650;BME280;64245;51.282;22.494;2024-03-17T10:38:00;99210.69;;;5.13;85.40
75650;BME280;64245;51.282;22.494;2024-03-17T10:40:28;99207.59;;;5.19;85.68
75650;BME280;64245;51.282;22.494;2024-03-17T10:42:56;99222.00;;;5.16;84.97
75650;BME280;64245;51.282;22.494;2024-03-17T10:45:23;99218.34;;;4.94;83.83
75650;BME280;64245;51.282;22.494;2024-03-17T10:47:51;99207.91;;;5.14;85.75
75650;BME280;64245;51.282;22.494;2024-03-17T10:50:20;99203.47;;;5.26;85.95
75650;BME280;64245;51.282;22.494;2024-03-17T10:52:47;99207.00;;;5.27;85.80
75650;BME280;64245;51.282;22.494;2024-03-17T10:55:26;99204.63;;;5.35;86.64
75650;BME280;64245;51.282;22.494;2024-03-17T10:57:53;99205.41;;;5.48;86.29
75650;BME280;64245;51.282;22.494;2024-03-17T11:00:24;99204.22;;;5.52;86.34
75650;BME280;64245;51.282;22.494;2024-03-17T11:02:52;99195.78;;;5.69;86.72
75650;BME280;64245;51.282;22.494;2024-03-17T11:05:28;99199.13;;;5.60;87.87
75650;BME280;64245;51.282;22.494;2024-03-17T11:07:59;99195.91;;;5.68;86.13
75650;BME280;64245;51.282;22.494;2024-03-17T11:10:34;99196.25;;;5.63;87.02
75650;BME280;64245;51.282;22.494;2024-03-17T11:13:01;99189.94;;;5.64;86.49
75650;BME280;64245;51.282;22.494;2024-03-17T11:20:39;99196.22;;;5.28;87.19
75650;BME280;64245;51.282;22.494;2024-03-17T11:23:08;99187.97;;;5.31;86.38
75650;BME280;64245;51.282;22.494;2024-03-17T11:25:38;99202.06;;;5.33;86.28
75650;BME280;64245;51.282;22.494;2024-03-17T11:28:06;99186.56;;;5.38;87.37
75650;BME280;64245;51.282;22.494;2024-03-17T11:30:42;99195.69;;;5.47;89.16
75650;BME280;64245;51.282;22.494;2024-03-17T11:46:45;99180.84;;;5.43;91.70
75650;BME280;64245;51.282;22.494;2024-03-17T11:49:29;99183.63;;;5.41;90.01
75650;BME280;64245;51.282;22.494;2024-03-17T11:51:57;99178.88;;;5.34;89.39
75650;BME280;64245;51.282;22.494;2024-03-17T11:54:29;99186.59;;;5.26;89.31
75650;BME280;64245;51.282;22.494;2024-03-17T11:57:00;99171.56;;;5.25;90.83
75650;BME280;64245;51.282;22.494;2024-03-17T11:59:27;99182.75;;;5.30;91.10
75650;BME280;64245;51.282;22.494;2024-03-17T12:02:01;99187.09;;;5.19;90.66
75650;BME280;64245;51.282;22.494;2024-03-17T12:04:40;99185.63;;;5.27;90.99
75650;BME280;64245;51.282;22.494;2024-03-17T12:07:12;99178.88;;;5.10;92.32
75650;BME280;64245;51.282;22.494;2024-03-17T12:09:41;99180.19;;;5.28;92.08
75650;BME280;64245;51.282;22.494;2024-03-17T12:12:10;99173.31;;;5.13;91.64
75650;BME280;64245;51.282;22.494;2024-03-17T12:14:37;99181.78;;;5.31;92.04
75650;BME280;64245;51.282;22.494;2024-03-17T12:17:14;99176.34;;;5.32;90.98
75650;BME280;64245;51.282;22.494;2024-03-17T12:19:41;99179.63;;;5.36;91.89
75650;BME280;64245;51.282;22.494;2024-03-17T12:22:17;99174.91;;;5.15;92.65
75650;BME280;64245;51.282;22.494;2024-03-17T12:24:45;99181.44;;;5.11;91.78
75650;BME280;64245;51.282;22.494;2024-03-17T12:27:17;99184.97;;;5.12;92.67
75650;BME280;64245;51.282;22.494;2024-03-17T12:29:43;99176.09;;;5.11;92.98
75650;BME280;64245;51.282;22.494;2024-03-17T12:34:39;99163.53;;;5.25;92.13
75650;BME280;64245;51.282;22.494;2024-03-17T12:37:07;99165.13;;;5.51;94.13
75650;BME280;64245;51.282;22.494;2024-03-17T12:39:34;99167.13;;;5.71;91.30
75650;BME280;64245;51.282;22.494;2024-03-17T12:42:11;99158.91;;;5.85;90.41
75650;BME280;64245;51.282;22.494;2024-03-17T12:44:59;99162.16;;;6.13;90.57
75650;BME280;64245;51.282;22.494;2024-03-17T12:47:28;99151.47;;;6.13;86.33
75650;BME280;64245;51.282;22.494;2024-03-17T12:49:58;99154.75;;;6.39;86.20
75650;BME280;64245;51.282;22.494;2024-03-17T12:52:26;99153.53;;;6.32;84.28
75650;BME280;64245;51.282;22.494;2024-03-17T12:55:03;99151.66;;;5.99;84.91
75650;BME280;64245;51.282;22.494;2024-03-17T12:58:04;99141.63;;;5.78;86.46
75650;BME280;64245;51.282;22.494;2024-03-17T13:01:02;99143.34;;;5.79;86.67
75650;BME280;64245;51.282;22.494;2024-03-17T13:03:31;99148.78;;;5.78;88.94
75650;BME280;64245;51.282;22.494;2024-03-17T13:06:03;99142.06;;;5.61;87.99
75650;BME280;64245;51.282;22.494;2024-03-17T13:08:32;99154.56;;;5.61;89.37
75650;BME280;64245;51.282;22.494;2024-03-17T13:11:01;99152.00;;;5.48;88.13
75650;BME280;64245;51.282;22.494;2024-03-17T13:13:29;99148.91;;;5.41;88.62
75650;BME280;64245;51.282;22.494;2024-03-17T13:15:55;99156.91;;;5.30;89.47
75650;BME280;64245;51.282;22.494;2024-03-17T13:18:21;99161.28;;;5.31;89.57
75650;BME280;64245;51.282;22.494;2024-03-17T13:20:48;99159.56;;;5.30;89.29
75650;BME280;64245;51.282;22.494;2024-03-17T13:23:23;99164.13;;;5.17;88.23